Time;durP1;ratioP1;P1;durP2;ratioP2;P2;SDS_P1;SDS_P2;PMS_P1;PMS_P2;Temp;Humidity;BMP_temperature;BMP_pressure;BME280_temperature;BME280_humidity;BME280_pressure;Samples;Min_cycle;Max_cycle;Signal;HPM_P1;HPM_P2
2022/03/07 00:00:29;;;;;;;0.93;0.93;;;;;;;-0.14;50.45;97282.00;29374;238;63005;-61
2022/03/07 00:01:00;;;;;;;0.60;0.60;;;;;;;-0.14;50.50;97274.00;29374;222;63009;-63
2022/03/07 00:01:31;;;;;;;0.77;0.77;;;;;;;-0.13;50.32;97275.62;29374;263;63004;-64
2022/03/07 00:02:04;;;;;;;0.60;0.60;;;;;;;-0.12;50.42;97284.44;29374;256;63009;-61
2022/03/07 00:02:36;;;;;;;0.60;0.60;;;;;;;-0.13;50.93;97283.62;29374;229;63004;-65
2022/03/07 00:03:07;;;;;;;0.60;0.60;;;;;;;-0.10;50.47;97285.06;29374;328;63009;-67
2022/03/07 00:03:39;;;;;;;0.60;0.60;;;;;;;-0.06;50.25;97279.06;29374;214;63004;-66
2022/03/07 00:04:14;;;;;;;0.60;0.60;;;;;;;-0.05;50.25;97286.03;29374;202;63008;-62
2022/03/07 00:04:46;;;;;;;0.70;0.70;;;;;;;-0.04;50.05;97276.19;29372;258;64009;-64
2022/03/07 00:05:19;;;;;;;0.60;0.60;;;;;;;-0.04;50.25;97277.00;29374;202;63009;-63
2022/03/07 00:05:53;;;;;;;0.60;0.60;;;;;;;-0.05;50.35;97280.72;29374;197;63005;-61
2022/03/07 00:06:24;;;;;;;0.60;0.60;;;;;;;-0.07;50.19;97276.62;29374;246;63009;-62
2022/03/07 00:06:55;;;;;;;0.60;0.60;;;;;;;-0.07;50.29;97282.78;29374;228;63018;-62
2022/03/07 00:07:32;;;;;;;0.60;0.60;;;;;;;-0.06;50.36;97276.41;29374;211;63009;-60
2022/03/07 00:08:04;;;;;;;0.60;0.60;;;;;;;-0.05;50.29;97280.72;29374;223;63005;-63
2022/03/07 00:08:36;;;;;;;0.60;0.60;;;;;;;-0.04;50.26;97281.53;29374;200;63009;-63
2022/03/07 00:09:07;;;;;;;0.60;0.60;;;;;;;-0.06;50.16;97284.41;29372;367;64023;-63
2022/03/07 00:09:38;;;;;;;0.60;0.60;;;;;;;-0.05;50.33;97279.87;29374;242;63009;-62
2022/03/07 00:10:09;;;;;;;0.60;0.60;;;;;;;-0.06;50.58;97283.59;29374;353;63004;-65
2022/03/07 00:10:53;;;;;;;0.60;0.60;;;;;;;-0.07;50.50;97285.44;29374;196;63009;-64
2022/03/07 00:11:31;;;;;;;0.88;0.88;;;;;;;-0.11;50.50;97281.56;29374;205;63004;-61
2022/03/07 00:12:06;;;;;;;0.60;0.60;;;;;;;-0.08;50.41;97278.47;29374;290;63009;-67
2022/03/07 00:13:05;;;;;;;0.60;0.60;;;;;;;-0.09;50.35;97284.03;29374;209;63008;-64
2022/03/07 00:13:38;;;;;;;0.85;0.85;;;;;;;-0.10;50.60;97283.19;29374;225;63009;-62
2022/03/07 00:14:12;;;;;;;0.70;0.70;;;;;;;-0.11;50.73;97289.56;29372;227;64009;-63
2022/03/07 00:14:43;;;;;;;0.60;0.60;;;;;;;-0.11;50.62;97288.75;29374;272;63024;-62
2022/03/07 00:15:16;;;;;;;0.60;0.60;;;;;;;-0.09;50.63;97287.50;29374;298;63005;-61
2022/03/07 00:15:49;;;;;;;0.70;0.70;;;;;;;-0.12;50.51;97290.59;29375;207;63009;-65
2022/03/07 00:16:22;;;;;;;0.70;0.70;;;;;;;-0.14;50.57;97284.66;29375;236;63004;-63
2022/03/07 00:16:54;;;;;;;0.60;0.60;;;;;;;-0.15;50.68;97285.69;29375;244;63009;-63
2022/03/07 00:17:30;;;;;;;0.60;0.60;;;;;;;-0.12;50.73;97284.44;29375;219;63008;-61
2022/03/07 00:18:01;;;;;;;0.60;0.60;;;;;;;-0.14;50.80;97287.31;29375;305;63009;-62
2022/03/07 00:18:32;;;;;;;0.60;0.60;;;;;;;-0.16;50.94;97294.72;29374;377;63004;-63
2022/03/07 00:19:11;;;;;;;0.60;0.60;;;;;;;-0.14;51.03;97289.19;29375;206;63008;-59
2022/03/07 00:19:49;;;;;;;0.60;0.60;;;;;;;-0.07;50.87;97282.78;29396;198;64009;-63
2022/03/07 00:20:22;;;;;;;0.60;0.60;;;;;;;-0.05;50.82;97285.22;29395;233;64014;-63
2022/03/07 00:20:58;;;;;;;0.60;0.60;;;;;;;-0.05;50.90;97286.03;29375;212;63012;-62
2022/03/07 00:21:30;;;;;;;0.60;0.60;;;;;;;-0.05;50.86;97290.56;29375;345;63009;-56
2022/03/07 00:22:03;;;;;;;0.68;0.68;;;;;;;-0.05;51.03;97286.03;29375;209;63005;-66
2022/03/07 00:22:43;;;;;;;0.60;0.60;;;;;;;-0.04;51.04;97287.69;29375;224;63009;-64
2022/03/07 00:23:15;;;;;;;0.70;0.70;;;;;;;-0.05;50.96;97290.56;29397;251;63005;-61
2022/03/07 00:23:48;;;;;;;0.70;0.70;;;;;;;-0.07;51.15;97282.78;29395;208;64013;-62
2022/03/07 00:24:19;;;;;;;0.60;0.60;;;;;;;-0.05;51.22;97285.22;29376;214;63004;-62
2022/03/07 00:24:50;;;;;;;0.60;0.60;;;;;;;-0.11;51.64;97286.91;29376;340;63009;-60
2022/03/07 00:25:21;;;;;;;0.60;0.60;;;;;;;-0.16;51.79;97289.38;29376;209;63004;-62
2022/03/07 00:25:53;;;;;;;0.60;0.60;;;;;;;-0.22;52.15;97290.25;29376;202;63009;-63
2022/03/07 00:26:42;;;;;;;0.60;0.60;;;;;;;-0.26;51.81;97286.38;29376;341;63004;-65
2022/03/07 00:27:16;;;;;;;29.50;11.27;;;;;;;-0.25;52.04;97296.00;29386;237;66014;-62
2022/03/07 00:27:50;;;;;;;1.02;1.02;;;;;;;-0.22;52.02;97290.25;29397;204;63005;-61
2022/03/07 00:28:21;;;;;;;0.60;0.60;;;;;;;-0.21;51.84;97291.88;29376;206;63009;-62
2022/03/07 00:28:53;;;;;;;1.42;1.33;;;;;;;-0.17;51.72;97287.75;29375;235;63005;-64
2022/03/07 00:29:24;;;;;;;0.70;0.70;;;;;;;-0.07;51.27;97285.44;29376;218;63009;-62
2022/03/07 00:30:10;;;;;;;2.85;2.75;;;;;;;-0.07;51.25;97288.09;29376;357;63005;-63
2022/03/07 00:30:41;;;;;;;0.70;0.70;;;;;;;-0.11;51.69;97286.09;29374;312;64013;-65
2022/03/07 00:31:19;;;;;;;0.70;0.70;;;;;;;-0.17;51.62;97287.75;29376;215;63004;-63
2022/03/07 00:31:51;;;;;;;0.60;0.60;;;;;;;-0.21;52.12;97291.06;29376;279;63009;-61
2022/03/07 00:32:27;;;;;;;0.70;0.70;;;;;;;-0.25;52.98;97296.00;29376;218;63004;-64
2022/03/07 00:32:58;;;;;;;0.82;0.82;;;;;;;-0.28;52.64;97293.75;29376;382;63008;-62
2022/03/07 00:33:38;;;;;;;0.70;0.70;;;;;;;-0.32;53.00;97295.22;29376;232;63004;-59
2022/03/07 00:34:10;;;;;;;4.60;2.37;;;;;;;-0.34;52.60;97302.63;29376;266;63008;-60
2022/03/07 00:34:54;;;;;;;0.60;0.60;;;;;;;-0.34;52.63;97298.09;29374;240;64009;-64
2022/03/07 00:35:39;;;;;;;0.60;0.60;;;;;;;-0.35;52.64;97306.34;29374;206;64013;-62
2022/03/07 00:36:34;;;;;;;0.70;0.70;;;;;;;-0.39;52.97;97299.78;29375;197;63009;-62
2022/03/07 00:37:15;;;;;;;2.40;2.30;;;;;;;-0.37;53.12;97308.41;29376;223;63009;-65
2022/03/07 00:37:49;;;;;;;0.60;0.60;;;;;;;-0.38;52.84;97306.75;29375;268;63005;-64
2022/03/07 00:38:24;;;;;;;0.60;0.60;;;;;;;-0.41;53.43;97308.00;29374;349;64013;-60
2022/03/07 00:39:01;;;;;;;0.60;0.60;;;;;;;-0.42;53.58;97310.87;29375;265;63012;-65
2022/03/07 00:39:42;;;;;;;0.60;0.60;;;;;;;-0.46;53.37;97309.66;29375;202;63009;-62
2022/03/07 00:40:17;;;;;;;0.95;0.95;;;;;;;-0.43;53.17;97311.91;29375;277;63008;-63
2022/03/07 00:40:48;;;;;;;0.60;0.60;;;;;;;-0.40;52.99;97306.16;29375;215;63008;-63
2022/03/07 00:41:24;;;;;;;0.60;0.60;;;;;;;-0.37;53.00;97313.72;29376;253;63005;-64
2022/03/07 00:41:59;;;;;;;0.60;0.60;;;;;;;-0.35;52.79;97309.00;29375;233;63005;-65
2022/03/07 00:42:33;;;;;;;0.60;0.60;;;;;;;-0.37;53.00;97308.41;29375;233;63005;-66
2022/03/07 00:43:15;;;;;;;0.70;0.70;;;;;;;-0.38;52.80;97306.75;29375;275;63009;-64
2022/03/07 00:43:55;;;;;;;0.50;0.50;;;;;;;-0.41;52.99;97312.53;29373;204;64009;-64
2022/03/07 00:44:28;;;;;;;0.70;0.70;;;;;;;-0.42;53.27;97310.87;29375;214;63009;-63
2022/03/07 00:44:59;;;;;;;0.60;0.60;;;;;;;-0.42;53.24;97306.38;29375;365;63009;-62
2022/03/07 00:45:30;;;;;;;0.60;0.60;;;;;;;-0.39;53.24;97313.94;29375;224;63009;-62
2022/03/07 00:46:02;;;;;;;0.60;0.60;;;;;;;-0.41;53.42;97313.34;29375;202;63004;-62
2022/03/07 00:46:33;;;;;;;0.60;0.60;;;;;;;-0.41;53.18;97308.00;29375;299;63009;-62
2022/03/07 00:47:05;;;;;;;0.70;0.70;;;;;;;-0.40;53.22;97303.50;29375;395;63004;-62
2022/03/07 00:47:37;;;;;;;0.60;0.60;;;;;;;-0.40;53.07;97311.50;29373;251;64013;-63
2022/03/07 00:48:08;;;;;;;0.60;0.60;;;;;;;-0.41;53.93;97308.00;29375;196;63004;-62
2022/03/07 00:48:40;;;;;;;0.70;0.70;;;;;;;-0.42;53.44;97309.03;29375;216;63008;-61
2022/03/07 00:49:11;;;;;;;0.60;0.60;;;;;;;-0.42;53.53;97310.87;29375;203;63005;-63
2022/03/07 00:49:42;;;;;;;0.60;0.60;;;;;;;-0.41;53.49;97304.53;29375;211;63016;-63
2022/03/07 00:50:17;;;;;;;0.60;0.60;;;;;;;-0.39;53.45;97305.94;29374;205;64009;-63
2022/03/07 00:50:51;;;;;;;0.60;0.60;;;;;;;-0.39;53.37;97305.94;29375;224;63009;-62
2022/03/07 00:51:24;;;;;;;0.70;0.70;;;;;;;-0.40;53.38;97304.31;29375;325;63005;-64
2022/03/07 00:51:57;;;;;;;0.60;0.60;;;;;;;-0.42;53.44;97310.87;29373;270;64013;-61
2022/03/07 00:52:28;;;;;;;0.60;0.60;;;;;;;-0.44;53.85;97319.09;29375;364;63005;-62
2022/03/07 00:53:00;;;;;;;0.70;0.70;;;;;;;-0.47;53.60;97306.19;29375;242;63009;-61
2022/03/07 00:53:31;;;;;;;3.08;1.80;;;;;;;-0.47;53.69;97308.84;29375;204;63004;-63
2022/03/07 00:54:03;;;;;;;0.70;0.70;;;;;;;-0.47;53.71;97308.84;29375;267;63009;-62
2022/03/07 00:54:34;;;;;;;0.60;0.60;;;;;;;-0.49;53.57;97302.91;29375;251;63004;-63
2022/03/07 00:55:06;;;;;;;0.60;0.60;;;;;;;-0.50;53.86;97309.28;29375;211;63009;-62
2022/03/07 00:55:39;;;;;;;1.67;1.67;;;;;;;-0.49;53.82;97310.09;29375;229;63004;-62
2022/03/07 00:56:10;;;;;;;0.60;0.60;;;;;;;-0.48;53.70;97311.72;29375;268;63008;-61
2022/03/07 00:56:41;;;;;;;0.60;0.60;;;;;;;-0.48;53.88;97311.72;29375;210;63005;-63
2022/03/07 00:57:13;;;;;;;0.60;0.60;;;;;;;-0.49;54.12;97304.75;29373;220;64014;-62
2022/03/07 00:57:44;;;;;;;0.60;0.60;;;;;;;-0.51;54.49;97312.16;29376;272;63005;-62
2022/03/07 00:58:15;;;;;;;0.70;0.70;;;;;;;-0.51;53.92;97306.81;29375;233;63009;-63
2022/03/07 00:58:46;;;;;;;0.60;0.60;;;;;;;-0.53;53.96;97304.38;29375;199;63005;-62
2022/03/07 00:59:17;;;;;;;0.70;0.70;;;;;;;-0.50;53.87;97308.47;29375;241;63009;-63
2022/03/07 00:59:48;;;;;;;0.60;0.60;;;;;;;-0.49;54.18;97310.09;29375;331;63005;-63
2022/03/07 01:00:20;;;;;;;1.33;1.33;;;;;;;-0.51;54.37;97306.81;29375;280;63009;-63
2022/03/07 01:00:51;;;;;;;0.60;0.60;;;;;;;-0.51;53.94;97301.50;29375;197;63004;-64
2022/03/07 01:01:22;;;;;;;0.60;0.60;;;;;;;-0.50;53.93;97313.78;29375;212;63009;-61
2022/03/07 01:01:53;;;;;;;0.60;0.60;;;;;;;-0.49;53.82;97310.09;29375;219;63004;-62
2022/03/07 01:02:25;;;;;;;0.60;0.60;;;;;;;-0.49;53.92;97304.75;29373;196;64013;-63
2022/03/07 01:02:56;;;;;;;0.65;0.65;;;;;;;-0.51;54.20;97307.62;29375;198;63004;-62
2022/03/07 01:03:27;;;;;;;0.60;0.60;;;;;;;-0.51;53.85;97312.16;29375;204;63008;-61
2022/03/07 01:03:59;;;;;;;0.60;0.60;;;;;;;-0.50;53.72;97309.28;29375;199;63005;-66
2022/03/07 01:04:33;;;;;;;0.60;0.60;;;;;;;-0.52;53.91;97306.00;29375;252;63009;-62
2022/03/07 01:05:05;;;;;;;0.60;0.60;;;;;;;-0.53;53.95;97300.88;29375;224;63005;-64
2022/03/07 01:05:38;;;;;;;0.60;0.60;;;;;;;-0.54;54.27;97312.56;29375;220;63009;-62
2022/03/07 01:06:09;;;;;;;0.75;0.75;;;;;;;-0.55;53.92;97305.59;29375;220;63005;-62
2022/03/07 01:06:40;;;;;;;0.70;0.70;;;;;;;-0.54;53.86;97307.25;29375;244;63009;-62
2022/03/07 01:07:11;;;;;;;0.60;0.60;;;;;;;-0.55;54.41;97311.75;29375;361;63005;-62
2022/03/07 01:07:42;;;;;;;0.60;0.60;;;;;;;-0.55;53.92;97316.25;29373;202;64013;-64
2022/03/07 01:08:14;;;;;;;0.70;0.70;;;;;;;-0.55;54.09;97311.75;29375;303;63004;-62
2022/03/07 01:08:45;;;;;;;0.60;0.60;;;;;;;-0.56;54.11;97312.78;29375;221;63009;-62
2022/03/07 01:09:16;;;;;;;0.60;0.60;;;;;;;-0.54;54.17;97312.56;29375;204;63005;-61
2022/03/07 01:09:47;;;;;;;0.70;0.70;;;;;;;-0.54;54.06;97313.38;29375;199;63009;-63
2022/03/07 01:10:18;;;;;;;0.60;0.60;;;;;;;-0.54;54.51;97309.91;29375;218;63008;-62
2022/03/07 01:10:50;;;;;;;0.62;0.62;;;;;;;-0.54;54.47;97316.06;29374;205;63014;-65
2022/03/07 01:11:21;;;;;;;0.62;0.62;;;;;;;-0.55;54.52;97305.59;29375;203;63004;-63
2022/03/07 01:11:52;;;;;;;4.50;4.10;;;;;;;-0.56;54.60;97311.97;29375;293;63009;-62
2022/03/07 01:12:23;;;;;;;0.60;0.60;;;;;;;-0.58;54.66;97316.69;29375;293;63005;-62
2022/03/07 01:12:55;;;;;;;0.60;0.60;;;;;;;-0.60;54.44;97314.22;29373;291;64014;-62
2022/03/07 01:13:26;;;;;;;0.65;0.65;;;;;;;-0.60;54.33;97308.91;29374;285;64005;-62
2022/03/07 01:13:59;;;;;;;0.60;0.60;;;;;;;-0.60;54.68;97308.09;29373;199;64013;-63
2022/03/07 01:14:31;;;;;;;0.60;0.60;;;;;;;-0.60;54.39;97308.09;29373;198;64009;-61
2022/03/07 01:15:07;;;;;;;0.65;0.65;;;;;;;-0.62;54.82;97312.81;29375;370;63009;-62
2022/03/07 01:15:39;;;;;;;0.60;0.60;;;;;;;-0.62;55.43;97312.81;29375;222;63005;-61
2022/03/07 01:16:10;;;;;;;0.70;0.70;;;;;;;-0.63;54.82;97313.84;29375;268;63004;-63
2022/03/07 01:16:41;;;;;;;0.60;0.60;;;;;;;-0.64;55.06;97312.19;29375;386;63004;-63
2022/03/07 01:17:12;;;;;;;0.70;0.70;;;;;;;-0.64;54.59;97306.88;29375;238;63009;-63
2022/03/07 01:17:44;;;;;;;0.60;0.60;;;;;;;-0.63;54.56;97305.84;29373;233;64009;-62
2022/03/07 01:18:15;;;;;;;0.70;0.70;;;;;;;-0.62;54.30;97310.97;29375;246;63016;-62
2022/03/07 01:18:46;;;;;;;0.77;0.77;;;;;;;-0.62;54.35;97302.16;29375;198;63017;-62
2022/03/07 01:19:18;;;;;;;0.60;0.60;;;;;;;-0.61;54.48;97307.25;29375;355;63009;-63
2022/03/07 01:19:49;;;;;;;0.70;0.70;;;;;;;-0.61;54.12;97304.59;29375;225;63005;-64
2022/03/07 01:20:20;;;;;;;0.60;0.60;;;;;;;-0.60;54.18;97308.09;29375;198;63009;-63
2022/03/07 01:20:52;;;;;;;0.62;0.62;;;;;;;-0.62;54.31;97310.16;29375;245;63005;-62
2022/03/07 01:21:24;;;;;;;0.70;0.70;;;;;;;-0.64;54.33;97304.19;29375;220;63009;-63
2022/03/07 01:21:55;;;;;;;0.60;0.60;;;;;;;-0.64;54.30;97301.53;29375;198;63005;-63
2022/03/07 01:22:26;;;;;;;0.60;0.60;;;;;;;-0.66;54.44;97304.41;29373;207;64013;-63
2022/03/07 01:22:57;;;;;;;0.60;0.60;;;;;;;-0.67;54.40;97302.78;29375;279;63004;-61
2022/03/07 01:23:29;;;;;;;0.65;0.65;;;;;;;-0.64;54.37;97307.69;29373;207;64013;-61
2022/03/07 01:24:00;;;;;;;0.60;0.60;;;;;;;-0.62;54.55;97305.63;29375;226;63004;-62
2022/03/07 01:24:31;;;;;;;0.60;0.60;;;;;;;-0.61;54.17;97307.25;29375;206;63009;-62
2022/03/07 01:25:05;;;;;;;0.70;0.70;;;;;;;-0.60;54.16;97310.75;29373;252;64008;-62
2022/03/07 01:25:37;;;;;;;0.70;0.70;;;;;;;-0.60;54.03;97303.56;29375;227;63008;-62
2022/03/07 01:26:08;;;;;;;0.70;0.70;;;;;;;-0.59;53.98;97304.38;29375;254;63004;-62
2022/03/07 01:26:39;;;;;;;0.70;0.70;;;;;;;-0.59;54.06;97299.06;29373;318;64014;-62
2022/03/07 01:27:10;;;;;;;0.60;0.60;;;;;;;-0.58;54.02;97298.03;29375;225;63005;-63
2022/03/07 01:27:41;;;;;;;0.60;0.60;;;;;;;-0.59;54.74;97307.88;29375;228;63009;-62
2022/03/07 01:28:13;;;;;;;0.70;0.70;;;;;;;-0.61;54.78;97306.44;29375;229;63004;-62
2022/03/07 01:28:44;;;;;;;0.70;0.70;;;;;;;-0.63;54.57;97303.19;29373;270;64028;-63
2022/03/07 01:29:15;;;;;;;0.70;0.70;;;;;;;-0.60;54.64;97308.09;29375;197;63005;-63
2022/03/07 01:29:46;;;;;;;0.60;0.60;;;;;;;-0.54;54.19;97301.91;29375;325;63017;-62
2022/03/07 01:30:17;;;;;;;0.60;0.60;;;;;;;-0.51;54.02;97301.50;29375;246;63015;-62
2022/03/07 01:30:49;;;;;;;0.70;0.70;;;;;;;-0.51;53.84;97301.50;29375;241;63009;-66
2022/03/07 01:31:21;;;;;;;0.60;0.60;;;;;;;-0.52;53.73;97305.19;29372;204;64009;-63
2022/03/07 01:31:52;;;;;;;0.70;0.70;;;;;;;-0.52;53.86;97299.84;29373;212;63009;-62
2022/03/07 01:32:23;;;;;;;0.70;0.70;;;;;;;-0.53;53.94;97298.22;29373;212;63004;-63
2022/03/07 01:32:55;;;;;;;1.55;1.55;;;;;;;-0.53;53.98;97303.53;29373;221;63008;-64
2022/03/07 01:33:26;;;;;;;0.60;0.60;;;;;;;-0.54;53.88;97307.25;29372;354;64009;-62
2022/03/07 01:33:57;;;;;;;0.65;0.65;;;;;;;-0.55;53.78;97297.59;29373;367;63009;-63
2022/03/07 01:34:28;;;;;;;0.70;0.70;;;;;;;-0.56;54.07;97301.31;29373;212;63005;-62
2022/03/07 01:35:00;;;;;;;0.60;0.60;;;;;;;-0.57;53.92;97302.34;29373;207;63024;-62
2022/03/07 01:35:31;;;;;;;0.62;0.62;;;;;;;-0.60;53.82;97297.41;29373;222;63005;-63
2022/03/07 01:36:04;;;;;;;0.60;0.60;;;;;;;-0.61;53.66;97295.78;29373;223;63021;-61
2022/03/07 01:36:35;;;;;;;0.70;0.70;;;;;;;-0.63;53.81;97292.50;29373;261;63005;-63
2022/03/07 01:37:07;;;;;;;0.70;0.70;;;;;;;-0.64;53.69;97297.03;29373;302;63009;-62
2022/03/07 01:37:38;;;;;;;0.70;0.70;;;;;;;-0.63;53.63;97292.50;29371;214;64009;-63
2022/03/07 01:38:09;;;;;;;0.70;0.70;;;;;;;-0.64;53.99;97298.88;29373;197;63009;-61
2022/03/07 01:38:40;;;;;;;0.70;0.70;;;;;;;-0.64;53.97;97290.88;29373;222;63004;-62
2022/03/07 01:39:11;;;;;;;0.60;0.60;;;;;;;-0.64;54.02;97297.03;29373;307;63009;-63
2022/03/07 01:39:44;;;;;;;0.60;0.60;;;;;;;-0.61;54.03;97298.44;29373;226;63004;-63
2022/03/07 01:40:15;;;;;;;0.70;0.70;;;;;;;-0.63;53.74;97295.19;29373;200;63008;-60
2022/03/07 01:40:47;;;;;;;0.70;0.70;;;;;;;-0.67;53.53;97292.94;29373;202;63004;-63
2022/03/07 01:41:18;;;;;;;0.60;0.60;;;;;;;-0.65;53.61;97291.91;29373;203;63009;-63
2022/03/07 01:41:49;;;;;;;0.60;0.60;;;;;;;-0.65;53.49;97287.41;29373;200;63005;-63
2022/03/07 01:42:20;;;;;;;2.55;2.45;;;;;;;-0.66;53.50;97293.75;29373;371;63009;-62
2022/03/07 01:42:51;;;;;;;1.10;1.10;;;;;;;-0.64;53.63;97293.53;29371;291;64009;-62
2022/03/07 01:43:23;;;;;;;0.70;0.70;;;;;;;-0.63;53.71;97297.84;29373;211;63009;-64
2022/03/07 01:43:54;;;;;;;0.70;0.70;;;;;;;-0.64;53.74;97290.88;29373;205;63005;-66
2022/03/07 01:44:29;;;;;;;0.60;0.60;;;;;;;-0.64;53.86;97298.88;29373;214;63009;-63
2022/03/07 01:45:11;;;;;;;0.70;0.70;;;;;;;-0.63;53.80;97297.84;29371;385;64009;-63
2022/03/07 01:45:43;;;;;;;0.68;0.68;;;;;;;-0.63;53.56;97287.19;29373;306;63009;-63
2022/03/07 01:46:14;;;;;;;0.65;0.65;;;;;;;-0.65;53.52;97291.91;29372;224;63004;-62
2022/03/07 01:46:45;;;;;;;0.60;0.60;;;;;;;-0.68;53.41;97291.31;29373;227;63009;-62
2022/03/07 01:47:16;;;;;;;0.60;0.60;;;;;;;-0.68;53.40;97296.63;29373;236;63004;-62
2022/03/07 01:47:48;;;;;;;0.95;0.95;;;;;;;-0.67;53.54;97289.44;29373;245;63008;-62
2022/03/07 01:48:19;;;;;;;0.68;0.68;;;;;;;-0.68;53.67;97293.97;29373;218;63004;-62
2022/03/07 01:48:51;;;;;;;0.60;0.60;;;;;;;-0.67;53.72;97292.94;29371;218;64014;-63
2022/03/07 01:49:23;;;;;;;0.60;0.60;;;;;;;-0.68;53.58;97293.97;29373;209;63005;-65
2022/03/07 01:49:54;;;;;;;0.60;0.60;;;;;;;-0.69;53.55;97289.66;29373;260;63009;-65
2022/03/07 01:50:25;;;;;;;0.60;0.60;;;;;;;-0.70;54.16;97288.06;29373;213;63005;-63
2022/03/07 01:50:57;;;;;;;0.60;0.60;;;;;;;-0.71;53.55;97291.75;29373;202;63009;-64
2022/03/07 01:51:28;;;;;;;0.62;0.62;;;;;;;-0.73;53.47;97293.81;29373;207;63005;-62
2022/03/07 01:52:00;;;;;;;0.60;0.60;;;;;;;-0.76;53.53;97288.91;29373;196;63009;-61
2022/03/07 01:52:34;;;;;;;0.60;0.60;;;;;;;-0.78;54.09;97290.97;29373;197;63005;-62
2022/03/07 01:53:05;;;;;;;0.60;0.60;;;;;;;-0.79;53.78;97289.31;29373;213;63015;-62
2022/03/07 01:53:38;;;;;;;0.60;0.60;;;;;;;-0.78;54.04;97290.13;29371;316;64009;-61
2022/03/07 01:54:11;;;;;;;0.60;0.60;;;;;;;-0.80;53.94;97293.00;29373;216;63009;-63
2022/03/07 01:54:42;;;;;;;0.60;0.60;;;;;;;-0.81;54.19;97291.38;29373;223;63004;-61
2022/03/07 01:55:15;;;;;;;0.70;0.70;;;;;;;-0.82;53.99;97288.91;29373;229;63008;-63
2022/03/07 01:55:46;;;;;;;0.60;0.60;;;;;;;-0.83;54.12;97293.44;29373;232;63004;-63
2022/03/07 01:56:18;;;;;;;1.25;1.25;;;;;;;-0.83;53.90;97293.44;29373;207;63009;-62
2022/03/07 01:56:51;;;;;;;0.70;0.70;;;;;;;-0.83;54.07;97282.78;29373;220;63005;-64
2022/03/07 01:57:23;;;;;;;0.60;0.60;;;;;;;-0.87;52.90;97289.56;29373;210;63009;-63
2022/03/07 01:57:54;;;;;;;0.70;0.70;;;;;;;-0.89;53.07;97280.94;29372;314;63005;-63
2022/03/07 01:58:25;;;;;;;0.60;0.60;;;;;;;-0.89;52.89;97280.94;29371;252;64013;-63
2022/03/07 01:58:57;;;;;;;0.60;0.60;;;;;;;-0.83;52.82;97280.09;29373;321;63005;-64
2022/03/07 01:59:30;;;;;;;0.70;0.70;;;;;;;-0.80;52.43;97277.03;29373;202;63009;-63
2022/03/07 02:00:05;;;;;;;0.80;0.80;;;;;;;-0.83;52.65;97277.44;29373;216;63005;-62
2022/03/07 02:00:36;;;;;;;0.62;0.62;;;;;;;-0.86;52.80;97277.03;29373;199;63009;-62
2022/03/07 02:01:07;;;;;;;0.60;0.60;;;;;;;-0.89;53.26;97278.28;29373;289;63010;-61
2022/03/07 02:01:40;;;;;;;0.70;0.70;;;;;;;-0.91;53.11;97279.53;29373;212;63009;-61
2022/03/07 02:02:12;;;;;;;0.60;0.60;;;;;;;-0.93;52.98;97282.41;29373;263;63004;-62
2022/03/07 02:02:44;;;;;;;0.62;0.62;;;;;;;-0.94;53.14;97282.59;29371;212;64013;-63
2022/03/07 02:03:15;;;;;;;0.70;0.70;;;;;;;-0.95;53.10;97284.44;29373;271;63004;-63
2022/03/07 02:03:46;;;;;;;0.60;0.60;;;;;;;-0.94;53.01;97283.41;29373;225;63009;-63
2022/03/07 02:04:18;;;;;;;0.60;0.60;;;;;;;-0.87;52.73;97281.56;29373;203;63005;-63
2022/03/07 02:04:49;;;;;;;0.70;0.70;;;;;;;-0.88;52.50;97277.25;29373;210;63009;-62
2022/03/07 02:05:20;;;;;;;0.60;0.60;;;;;;;-0.91;52.84;97280.34;29373;218;63005;-62
2022/03/07 02:05:53;;;;;;;0.70;0.70;;;;;;;-0.93;52.84;97277.06;29371;197;64013;-61
2022/03/07 02:06:25;;;;;;;0.60;0.60;;;;;;;-0.95;53.02;97279.13;29373;207;63005;-63
2022/03/07 02:06:56;;;;;;;0.60;0.60;;;;;;;-0.96;52.90;97284.66;29373;326;63009;-63
2022/03/07 02:07:28;;;;;;;0.60;0.60;;;;;;;-0.98;53.10;97276.06;29373;313;63005;-64
2022/03/07 02:08:00;;;;;;;0.57;0.57;;;;;;;-1.00;53.14;97276.25;29373;197;63009;-63
2022/03/07 02:08:31;;;;;;;0.60;0.60;;;;;;;-1.02;53.42;97273.81;29371;252;64009;-64
2022/03/07 02:09:03;;;;;;;0.60;0.60;;;;;;;-1.03;53.16;97277.50;29373;239;63009;-64
2022/03/07 02:09:34;;;;;;;0.60;0.60;;;;;;;-1.05;53.19;97273.44;29373;234;63004;-61
2022/03/07 02:10:07;;;;;;;0.60;0.60;;;;;;;-1.05;52.79;97276.91;29373;255;63009;-61
2022/03/07 02:10:39;;;;;;;0.70;0.70;;;;;;;-1.05;53.08;97273.44;29373;219;63004;-63
2022/03/07 02:11:11;;;;;;;0.60;0.60;;;;;;;-1.05;52.75;97276.09;29373;206;63009;-64
2022/03/07 02:11:43;;;;;;;0.70;0.70;;;;;;;-1.01;52.79;97266.63;29373;392;63005;-63
2022/03/07 02:12:14;;;;;;;0.93;0.93;;;;;;;-0.95;52.31;97271.13;29373;224;63009;-63
2022/03/07 02:12:46;;;;;;;0.70;0.70;;;;;;;-0.95;52.28;97271.13;29372;244;63005;-63
2022/03/07 02:13:19;;;;;;;0.70;0.70;;;;;;;-0.82;51.79;97268.41;29371;226;64013;-64
2022/03/07 02:13:50;;;;;;;0.70;0.70;;;;;;;-0.78;51.31;97258.97;29373;237;63005;-62
2022/03/07 02:14:22;;;;;;;0.70;0.70;;;;;;;-0.73;51.50;97261.84;29373;220;63009;-62
2022/03/07 02:14:53;;;;;;;0.70;0.70;;;;;;;-0.71;51.38;97264.28;29373;208;63005;-63
2022/03/07 02:15:25;;;;;;;0.70;0.70;;;;;;;-0.72;50.89;97262.66;29373;220;63009;-63
2022/03/07 02:15:57;;;;;;;0.60;0.60;;;;;;;-0.75;51.12;97263.06;29373;210;63004;-62
2022/03/07 02:16:28;;;;;;;0.70;0.70;;;;;;;-0.82;51.07;97257.78;29373;207;63009;-63
2022/03/07 02:17:01;;;;;;;0.70;0.70;;;;;;;-0.89;51.35;97261.47;29371;210;64009;-62
2022/03/07 02:17:32;;;;;;;0.70;0.70;;;;;;;-0.93;51.65;97262.94;29373;218;63009;-63
2022/03/07 02:18:03;;;;;;;0.60;0.60;;;;;;;-1.01;52.00;97258.66;29373;213;63004;-63
2022/03/07 02:18:35;;;;;;;0.60;0.60;;;;;;;-1.10;52.30;97266.06;29373;210;63008;-62
2022/03/07 02:19:06;;;;;;;0.70;0.70;;;;;;;-1.15;52.62;97278.38;29373;354;63005;-65
2022/03/07 02:19:37;;;;;;;0.80;0.80;;;;;;;-1.17;52.68;97264.47;29373;232;63009;-62
2022/03/07 02:20:11;;;;;;;0.70;0.70;;;;;;;-1.16;52.56;97268.75;29371;228;64009;-63
2022/03/07 02:20:42;;;;;;;0.98;0.98;;;;;;;-1.16;52.45;97260.75;29373;224;63009;-62
2022/03/07 02:21:17;;;;;;;0.70;0.70;;;;;;;-1.17;52.70;97265.28;29373;202;63005;-64
2022/03/07 02:21:52;;;;;;;0.70;0.70;;;;;;;-1.19;52.29;97267.31;29373;204;63009;-63
2022/03/07 02:22:24;;;;;;;0.70;0.70;;;;;;;-1.21;52.72;97268.56;29373;255;63005;-64
2022/03/07 02:22:55;;;;;;;0.60;0.60;;;;;;;-1.23;52.91;97266.09;29371;199;64013;-63
2022/03/07 02:23:26;;;;;;;0.70;0.70;;;;;;;-1.25;53.35;97270.00;29373;248;63004;-64
2022/03/07 02:23:57;;;;;;;0.70;0.70;;;;;;;-1.24;53.41;97268.97;29373;198;63009;-61
2022/03/07 02:24:28;;;;;;;0.60;0.60;;;;;;;-1.19;52.64;97267.31;29373;202;63004;-63
2022/03/07 02:25:00;;;;;;;0.70;0.70;;;;;;;-1.19;52.47;97261.19;29373;197;63025;-62
2022/03/07 02:25:31;;;;;;;0.80;0.80;;;;;;;-1.19;52.50;97266.50;29372;197;63004;-62
2022/03/07 02:26:14;;;;;;;0.70;0.70;;;;;;;-1.27;52.79;97269.38;29371;202;64013;-62
2022/03/07 02:27:03;;;;;;;0.70;0.70;;;;;;;-1.33;52.76;97264.87;29371;265;64025;-65
2022/03/07 02:27:34;;;;;;;0.70;0.70;;;;;;;-1.33;52.91;97267.56;29373;227;63009;-63
2022/03/07 02:28:05;;;;;;;0.70;0.70;;;;;;;-1.36;53.80;97266.94;29373;271;63005;-64
2022/03/07 02:28:39;;;;;;;0.70;0.70;;;;;;;-1.39;53.42;97267.34;29373;220;63009;-64
2022/03/07 02:29:11;;;;;;;0.70;0.70;;;;;;;-1.41;53.56;97264.13;29371;438;64009;-62
2022/03/07 02:29:42;;;;;;;0.70;0.70;;;;;;;-1.41;53.45;97261.44;29373;231;63009;-62
2022/03/07 02:30:13;;;;;;;0.80;0.80;;;;;;;-1.40;53.47;97265.75;29373;341;63004;-62
2022/03/07 02:30:44;;;;;;;0.60;0.60;;;;;;;-1.36;53.63;97269.59;29373;360;63009;-63
2022/03/07 02:31:18;;;;;;;0.60;0.60;;;;;;;-1.32;53.03;97255.88;29373;256;63004;-62
2022/03/07 02:31:50;;;;;;;0.70;0.70;;;;;;;-1.31;52.93;97268.16;29373;323;63009;-62
2022/03/07 02:32:22;;;;;;;0.60;0.60;;;;;;;-1.35;53.24;97273.91;29373;215;63004;-63
2022/03/07 02:32:53;;;;;;;0.70;0.70;;;;;;;-1.36;53.19;97261.62;29373;228;63008;-62
2022/03/07 02:33:24;;;;;;;0.70;0.70;;;;;;;-1.37;52.98;97264.50;29371;198;64008;-62
2022/03/07 02:33:56;;;;;;;0.65;0.65;;;;;;;-1.42;53.25;97265.13;29373;265;63009;-63
2022/03/07 02:34:28;;;;;;;0.70;0.70;;;;;;;-1.43;53.29;97260.03;29373;206;63005;-63
2022/03/07 02:34:59;;;;;;;0.70;0.70;;;;;;;-1.46;53.36;97255.13;29373;367;63009;-63
2022/03/07 02:35:30;;;;;;;0.60;0.60;;;;;;;-1.46;53.42;97257.78;29373;212;63005;-62
2022/03/07 02:36:03;;;;;;;0.70;0.70;;;;;;;-1.48;53.70;97260.62;29373;215;63009;-62